createdAt,value
2018-09-04T00:00:27.231Z,46.80
2018-09-04T00:01:27.249Z,46.80
2018-09-04T00:02:27.270Z,46.10
2018-09-04T00:03:27.294Z,44.00
2018-09-04T00:04:27.317Z,43.80
2018-09-04T00:05:27.341Z,43.70
2018-09-04T00:06:27.365Z,42.90
2018-09-04T00:07:27.391Z,44.30
2018-09-04T00:08:27.411Z,43.00
2018-09-04T00:09:27.440Z,43.00
2018-09-04T00:10:27.461Z,39.70
2018-09-04T00:11:27.482Z,41.80
2018-09-04T00:12:27.508Z,40.10
2018-09-04T00:13:27.532Z,40.70
2018-09-04T00:14:27.556Z,39.90
2018-09-04T00:15:27.579Z,37.90
2018-09-04T00:16:27.600Z,37.90
2018-09-04T00:17:27.625Z,38.30
2018-09-04T00:18:27.650Z,36.30
2018-09-04T00:19:27.674Z,37.60
2018-09-04T00:20:27.697Z,36.30
2018-09-04T00:21:27.720Z,37.10
2018-09-04T00:22:27.743Z,36.70
2018-09-04T00:23:27.769Z,36.90
2018-09-04T00:24:27.788Z,35.10
2018-09-04T00:25:27.821Z,36.30
2018-09-04T00:26:27.862Z,37.00
2018-09-04T00:27:27.859Z,35.60
2018-09-04T00:28:27.885Z,34.60
2018-09-04T00:29:27.909Z,35.70
2018-09-04T00:30:27.931Z,36.50
2018-09-04T00:31:27.953Z,36.80
2018-09-04T00:32:27.976Z,36.30
2018-09-04T00:33:28.001Z,35.90
2018-09-04T00:34:28.028Z,35.50
2018-09-04T00:35:28.047Z,36.80
2018-09-04T00:36:28.070Z,36.90
2018-09-04T00:37:28.096Z,37.60
2018-09-04T00:38:28.120Z,37.60
2018-09-04T00:39:28.143Z,38.30
2018-09-04T00:40:28.167Z,39.20
2018-09-04T00:41:28.186Z,38.70
2018-09-04T00:42:28.210Z,40.00
2018-09-04T00:43:28.235Z,39.60
2018-09-04T00:44:28.260Z,37.60
2018-09-04T00:45:28.282Z,39.80
2018-09-04T00:46:28.304Z,39.80
2018-09-04T00:47:28.328Z,38.10
2018-09-04T00:48:28.349Z,38.50
2018-09-04T00:49:28.377Z,39.10
2018-09-04T00:50:28.401Z,40.30
2018-09-04T00:51:28.421Z,38.10
2018-09-04T00:52:28.445Z,39.10
2018-09-04T00:53:28.467Z,39.50
2018-09-04T00:54:28.492Z,39.90
2018-09-04T00:55:28.516Z,42.00
2018-09-04T00:56:28.538Z,41.20
2018-09-04T00:57:28.561Z,41.70
2018-09-04T00:58:28.590Z,41.60
2018-09-04T00:59:28.613Z,39.70
2018-09-04T01:00:28.631Z,42.20
2018-09-04T01:01:28.703Z,42.70
2018-09-04T01:02:28.677Z,40.80
2018-09-04T01:03:28.701Z,42.40
2018-09-04T01:04:28.728Z,43.00
2018-09-04T01:05:28.749Z,41.40
2018-09-04T01:06:28.771Z,42.50
2018-09-04T01:07:28.794Z,42.80
2018-09-04T01:08:28.819Z,42.00
2018-09-04T01:09:28.844Z,41.70
2018-09-04T01:10:28.868Z,43.10
2018-09-04T01:11:28.888Z,44.10
2018-09-04T01:12:28.912Z,42.50
2018-09-04T01:13:28.937Z,42.50
2018-09-04T01:14:28.961Z,42.20
2018-09-04T01:15:28.985Z,43.10
2018-09-04T01:16:29.007Z,41.70
2018-09-04T01:17:29.027Z,41.80
2018-09-04T01:18:29.053Z,44.80
2018-09-04T01:19:29.075Z,43.10
2018-09-04T01:20:29.099Z,42.30
2018-09-04T01:21:29.120Z,42.70
2018-09-04T01:22:29.145Z,41.60
2018-09-04T01:23:29.171Z,41.40
2018-09-04T01:24:29.191Z,43.00
2018-09-04T01:25:29.215Z,41.30
2018-09-04T01:26:29.240Z,42.40
2018-09-04T01:27:29.261Z,43.60
2018-09-04T01:28:29.283Z,43.40
2018-09-04T01:29:29.310Z,41.90
2018-09-04T01:30:29.332Z,42.30
2018-09-04T01:31:29.353Z,44.20
2018-09-04T01:32:29.377Z,42.40
2018-09-04T01:33:29.403Z,42.10
2018-09-04T01:34:29.425Z,42.00
2018-09-04T01:35:29.450Z,41.70
2018-09-04T01:36:29.470Z,42.50
2018-09-04T01:37:29.495Z,44.20
2018-09-04T01:38:29.520Z,43.70
2018-09-04T01:39:29.544Z,43.20
2018-09-04T01:40:29.564Z,41.90
2018-09-04T01:41:29.586Z,43.40
2018-09-04T01:42:29.611Z,43.80
2018-09-04T01:43:29.636Z,43.60
2018-09-04T01:44:29.655Z,43.80
2018-09-04T01:45:29.681Z,42.40
2018-09-04T01:46:29.704Z,44.20
2018-09-04T01:47:29.729Z,42.60
2018-09-04T01:48:29.752Z,44.70
2018-09-04T01:49:29.774Z,44.60
2018-09-04T01:50:29.797Z,43.80
2018-09-04T01:51:29.823Z,43.00
2018-09-04T01:52:29.844Z,45.30
2018-09-04T01:53:29.864Z,44.50
2018-09-04T01:54:29.891Z,43.30
2018-09-04T01:55:29.914Z,43.80
2018-09-04T01:56:29.936Z,45.50
2018-09-04T01:57:29.960Z,43.50
2018-09-04T01:58:29.982Z,44.90
2018-09-04T01:59:30.008Z,43.60
2018-09-04T02:00:30.031Z,41.50
2018-09-04T02:01:30.054Z,43.80
2018-09-04T02:02:30.077Z,42.50
2018-09-04T02:03:30.099Z,43.20
2018-09-04T02:04:30.125Z,43.40
2018-09-04T02:05:30.144Z,41.30
2018-09-04T02:06:30.171Z,43.60
2018-09-04T02:07:30.194Z,42.00
2018-09-04T02:08:30.214Z,43.80
2018-09-04T02:09:30.239Z,43.10
2018-09-04T02:10:30.261Z,43.80
2018-09-04T02:11:30.287Z,43.30
2018-09-04T02:12:30.310Z,42.30
2018-09-04T02:13:30.334Z,42.90
2018-09-04T02:14:30.357Z,44.20
2018-09-04T02:15:30.378Z,43.00
2018-09-04T02:16:30.407Z,41.30
2018-09-04T02:17:30.429Z,42.60
2018-09-04T02:18:30.458Z,42.70
2018-09-04T02:19:30.476Z,41.50
2018-09-04T02:20:30.496Z,41.50
2018-09-04T02:21:30.518Z,41.70
2018-09-04T02:22:30.540Z,42.30
2018-09-04T02:23:30.565Z,42.00
2018-09-04T02:24:30.590Z,43.10
2018-09-04T02:25:30.610Z,42.50
2018-09-04T02:26:30.634Z,41.70
2018-09-04T02:27:30.658Z,42.50
2018-09-04T02:28:30.683Z,44.20
2018-09-04T02:29:30.707Z,41.30
2018-09-04T02:30:30.727Z,40.30
2018-09-04T02:31:30.755Z,42.00
2018-09-04T02:32:30.775Z,44.30
2018-09-04T02:33:30.799Z,43.60
2018-09-04T02:34:30.824Z,44.00
2018-09-04T02:35:30.848Z,43.50
2018-09-04T02:36:30.872Z,43.90
2018-09-04T02:37:30.891Z,41.90
2018-09-04T02:38:30.921Z,42.50
2018-09-04T02:39:30.940Z,43.50
2018-09-04T02:40:30.960Z,42.20
2018-09-04T02:41:30.992Z,42.90
2018-09-04T02:42:31.011Z,42.80
2018-09-04T02:43:31.035Z,42.40
2018-09-04T02:44:31.056Z,43.00
2018-09-04T02:45:31.078Z,43.40
2018-09-04T02:46:31.101Z,41.50
2018-09-04T02:47:31.126Z,44.00
2018-09-04T02:48:31.147Z,40.60
2018-09-04T02:49:31.173Z,41.60
2018-09-04T02:50:31.197Z,43.20
2018-09-04T02:51:31.218Z,42.80
2018-09-04T02:52:31.246Z,43.20
2018-09-04T02:53:31.267Z,43.90
2018-09-04T02:54:31.288Z,42.90
2018-09-04T02:55:31.314Z,43.60
2018-09-04T02:56:31.337Z,43.40
2018-09-04T02:57:31.361Z,44.00
2018-09-04T02:58:31.384Z,42.70
2018-09-04T02:59:31.404Z,42.40
2018-09-04T03:00:31.427Z,43.70
2018-09-04T03:01:31.450Z,43.50
2018-09-04T03:02:31.475Z,43.40
2018-09-04T03:03:31.503Z,47.00
2018-09-04T03:04:31.520Z,45.40
2018-09-04T03:05:31.547Z,44.30
2018-09-04T03:06:31.567Z,44.40
2018-09-04T03:07:31.593Z,44.80
2018-09-04T03:08:31.623Z,45.20
2018-09-04T03:09:31.638Z,45.30
2018-09-04T03:10:31.660Z,45.10
2018-09-04T03:11:31.686Z,45.40
2018-09-04T03:12:31.709Z,45.90
2018-09-04T03:13:31.804Z,44.00
2018-09-04T03:14:31.756Z,45.00
2018-09-04T03:15:31.776Z,44.90
2018-09-04T03:16:31.800Z,45.30
2018-09-04T03:17:31.825Z,45.80
2018-09-04T03:18:31.849Z,45.60
2018-09-04T03:19:31.870Z,45.30
2018-09-04T03:20:31.901Z,44.90
2018-09-04T03:21:31.917Z,45.00
2018-09-04T03:22:31.942Z,45.90
2018-09-04T03:23:31.962Z,44.60
2018-09-04T03:24:31.985Z,45.50
2018-09-04T03:25:32.011Z,45.60
2018-09-04T03:26:32.039Z,46.60
2018-09-04T03:27:32.055Z,45.80
2018-09-04T03:28:32.078Z,45.50
2018-09-04T03:29:32.103Z,45.20
2018-09-04T03:30:32.124Z,46.40
2018-09-04T03:31:32.150Z,44.50
2018-09-04T03:32:32.173Z,42.90
2018-09-04T03:33:32.193Z,44.20
2018-09-04T03:34:32.218Z,45.40
2018-09-04T03:35:32.242Z,44.00
2018-09-04T03:36:32.264Z,41.30
2018-09-04T03:37:32.287Z,43.30
2018-09-04T03:38:32.308Z,43.70
2018-09-04T03:39:32.333Z,42.30
2018-09-04T03:40:32.356Z,42.30
2018-09-04T03:41:32.378Z,40.40
2018-09-04T03:42:32.436Z,41.80
2018-09-04T03:43:32.427Z,41.40
2018-09-04T03:44:32.567Z,41.80
2018-09-04T03:45:32.472Z,42.00
2018-09-04T03:46:32.493Z,41.70
2018-09-04T03:47:32.515Z,41.80
2018-09-04T03:48:32.541Z,40.60
2018-09-04T03:49:32.563Z,40.50
2018-09-04T03:50:32.585Z,42.80
2018-09-04T03:51:32.607Z,42.80
2018-09-04T03:52:32.634Z,42.80
2018-09-04T03:53:32.655Z,41.90
2018-09-04T03:54:32.675Z,41.80
2018-09-04T03:55:32.698Z,39.60
2018-09-04T03:56:32.723Z,41.80
2018-09-04T03:57:32.747Z,41.70
2018-09-04T03:58:32.770Z,41.80
2018-09-04T03:59:32.791Z,41.80
2018-09-04T04:00:32.864Z,41.70
2018-09-04T04:01:32.920Z,41.30
2018-09-04T04:02:32.862Z,42.80
2018-09-04T04:03:32.882Z,43.60
2018-09-04T04:04:32.905Z,41.10
2018-09-04T04:05:32.930Z,42.00
2018-09-04T04:06:32.952Z,43.50
2018-09-04T04:07:32.978Z,43.00
2018-09-04T04:08:32.999Z,41.60
2018-09-04T04:09:33.023Z,41.10
2018-09-04T04:10:33.043Z,42.80
2018-09-04T04:11:33.067Z,41.80
2018-09-04T04:12:33.089Z,42.50
2018-09-04T04:13:33.112Z,40.20
2018-09-04T04:14:33.134Z,42.60
2018-09-04T04:15:33.160Z,41.40
2018-09-04T04:16:33.181Z,42.90
2018-09-04T04:17:33.206Z,43.90
2018-09-04T04:18:33.229Z,42.10
2018-09-04T04:19:33.252Z,42.00
2018-09-04T04:20:33.272Z,42.10
2018-09-04T04:21:33.295Z,42.30
2018-09-04T04:22:33.322Z,43.60
2018-09-04T04:23:33.344Z,42.00
2018-09-04T04:24:33.364Z,41.80
2018-09-04T04:25:33.387Z,42.20
2018-09-04T04:26:33.410Z,42.10
2018-09-04T04:27:33.437Z,41.40
2018-09-04T04:28:33.456Z,43.20
2018-09-04T04:29:33.478Z,39.60
2018-09-04T04:30:33.504Z,41.00
2018-09-04T04:31:33.555Z,41.40
2018-09-04T04:32:33.551Z,40.70
2018-09-04T04:33:33.571Z,40.30
2018-09-04T04:34:33.597Z,40.40
2018-09-04T04:35:33.619Z,43.00
2018-09-04T04:36:33.640Z,41.90
2018-09-04T04:37:33.662Z,41.60
2018-09-04T04:38:33.690Z,42.70
2018-09-04T04:39:33.709Z,43.20
2018-09-04T04:40:33.733Z,42.60
2018-09-04T04:41:33.755Z,42.90
2018-09-04T04:42:33.777Z,42.10
2018-09-04T04:43:33.800Z,41.60
2018-09-04T04:44:33.825Z,42.20
2018-09-04T04:45:33.848Z,42.40
2018-09-04T04:46:33.873Z,41.60
2018-09-04T04:47:33.892Z,43.60
2018-09-04T04:48:33.915Z,42.80
2018-09-04T04:49:33.943Z,41.80
2018-09-04T04:50:33.963Z,42.30
2018-09-04T04:51:33.988Z,43.00
2018-09-04T04:52:34.010Z,43.50
2018-09-04T04:53:34.031Z,42.00
2018-09-04T04:54:34.055Z,42.70
2018-09-04T04:55:34.080Z,42.20
2018-09-04T04:56:34.100Z,41.20
2018-09-04T04:57:34.129Z,44.00
2018-09-04T04:58:34.146Z,42.50
2018-09-04T04:59:34.170Z,44.10
2018-09-04T05:00:34.194Z,42.00
2018-09-04T05:01:34.215Z,42.80
2018-09-04T05:02:34.241Z,44.50
2018-09-04T05:03:34.263Z,43.30
2018-09-04T05:04:34.284Z,42.90
2018-09-04T05:05:34.306Z,44.10
2018-09-04T05:06:34.335Z,43.20
2018-09-04T05:07:34.353Z,45.30
2018-09-04T05:08:34.375Z,45.70
2018-09-04T05:09:34.399Z,44.30
2018-09-04T05:10:34.424Z,45.10
2018-09-04T05:11:34.588Z,43.00
2018-09-04T05:12:34.469Z,45.50
2018-09-04T05:13:34.494Z,44.70
2018-09-04T05:14:34.515Z,44.90
2018-09-04T05:15:34.539Z,47.70
2018-09-04T05:16:34.561Z,46.80
2018-09-04T05:17:34.583Z,45.40
2018-09-04T05:18:34.609Z,47.30
2018-09-04T05:19:34.632Z,43.90
2018-09-04T05:20:34.655Z,45.20
2018-09-04T05:21:34.676Z,47.90
2018-09-04T05:22:34.750Z,45.60
2018-09-04T05:23:34.725Z,46.50
2018-09-04T05:24:34.748Z,45.70
2018-09-04T05:25:34.769Z,45.70
2018-09-04T05:26:34.796Z,44.60
2018-09-04T05:27:34.816Z,46.50
2018-09-04T05:28:34.840Z,44.60
2018-09-04T05:29:34.863Z,46.20
2018-09-04T05:30:34.884Z,48.50
2018-09-04T05:31:34.908Z,47.50
2018-09-04T05:32:34.931Z,45.40
2018-09-04T05:33:34.955Z,46.90
2018-09-04T05:34:34.978Z,47.60
2018-09-04T05:35:35.004Z,48.00
2018-09-04T05:36:35.037Z,47.50
2018-09-04T05:37:35.051Z,45.70
2018-09-04T05:38:35.071Z,45.80
2018-09-04T05:39:35.097Z,46.30
2018-09-04T05:40:35.119Z,46.80
2018-09-04T05:41:35.143Z,47.60
2018-09-04T05:42:35.166Z,45.90
2018-09-04T05:43:35.187Z,47.40
2018-09-04T05:44:35.211Z,45.90
2018-09-04T05:45:35.234Z,48.90
2018-09-04T05:46:35.260Z,49.40
2018-09-04T05:47:35.281Z,45.60
2018-09-04T05:48:35.304Z,47.80
2018-09-04T05:49:35.329Z,44.00
2018-09-04T05:50:35.353Z,45.50
2018-09-04T05:51:35.376Z,45.50
2018-09-04T05:52:35.396Z,44.20
2018-09-04T05:53:35.420Z,45.20
2018-09-04T05:54:35.443Z,44.50
2018-09-04T05:55:35.475Z,45.40
2018-09-04T05:56:35.491Z,46.40
2018-09-04T05:57:35.516Z,46.70
2018-09-04T05:58:35.541Z,46.00
2018-09-04T05:59:35.562Z,45.80
2018-09-04T06:00:35.583Z,45.60
2018-09-04T06:01:35.607Z,44.50
2018-09-04T06:02:35.631Z,46.70
2018-09-04T06:03:35.655Z,43.50
2018-09-04T06:04:35.676Z,46.50
2018-09-04T06:05:35.700Z,46.50
2018-09-04T06:06:35.725Z,46.80
2018-09-04T06:07:35.749Z,45.10
2018-09-04T06:08:35.771Z,45.80
2018-09-04T06:09:35.796Z,46.50
2018-09-04T06:10:35.821Z,46.00
2018-09-04T06:11:35.842Z,45.80
2018-09-04T06:12:35.865Z,46.90
2018-09-04T06:13:35.892Z,45.50
2018-09-04T06:14:35.913Z,45.50
2018-09-04T06:15:35.936Z,46.70
2018-09-04T06:16:35.964Z,48.60
2018-09-04T06:17:35.986Z,47.60
2018-09-04T06:18:36.010Z,48.20
2018-09-04T06:19:36.034Z,48.40
2018-09-04T06:20:36.101Z,48.80
2018-09-04T06:21:36.078Z,46.30
2018-09-04T06:22:36.107Z,47.00
2018-09-04T06:23:36.226Z,45.90
2018-09-04T06:24:36.150Z,47.40
2018-09-04T06:25:36.187Z,46.40
2018-09-04T06:26:36.224Z,47.10
2018-09-04T06:27:36.223Z,47.70
2018-09-04T06:28:36.245Z,47.30
2018-09-04T06:29:36.284Z,46.30
2018-09-04T06:30:36.296Z,46.90
2018-09-04T06:31:36.314Z,45.00
2018-09-04T06:32:36.340Z,45.90
2018-09-04T06:33:36.371Z,45.60
2018-09-04T06:34:36.386Z,47.30
2018-09-04T06:35:36.417Z,45.60
2018-09-04T06:36:36.464Z,47.20
2018-09-04T06:37:36.456Z,46.40
2018-09-04T06:38:36.483Z,47.50
2018-09-04T06:39:36.507Z,45.50
2018-09-04T06:40:36.530Z,47.90
2018-09-04T06:41:36.550Z,46.40
2018-09-04T06:42:36.582Z,46.90
2018-09-04T06:43:36.602Z,48.30
2018-09-04T06:44:36.627Z,47.40
2018-09-04T06:45:36.648Z,48.10
2018-09-04T06:46:36.760Z,47.40
2018-09-04T06:47:36.697Z,47.90
2018-09-04T06:48:36.719Z,47.30
2018-09-04T06:49:36.740Z,45.90
2018-09-04T06:50:36.766Z,47.40
2018-09-04T06:51:36.790Z,46.50
2018-09-04T06:52:36.814Z,46.10
2018-09-04T06:53:36.838Z,45.40
2018-09-04T06:54:36.922Z,47.70
2018-09-04T06:55:36.887Z,47.20
2018-09-04T06:56:36.907Z,47.80
2018-09-04T06:57:36.933Z,46.10
2018-09-04T06:58:36.960Z,46.60
2018-09-04T06:59:36.979Z,47.80
2018-09-04T07:00:37.002Z,48.90
2018-09-04T07:01:37.029Z,44.70
2018-09-04T07:02:37.051Z,47.60
2018-09-04T07:03:37.075Z,46.80
2018-09-04T07:04:37.101Z,44.70
2018-09-04T07:05:37.132Z,46.50
2018-09-04T07:06:37.146Z,46.10
2018-09-04T07:07:37.174Z,46.80
2018-09-04T07:08:37.196Z,45.50
2018-09-04T07:09:37.217Z,46.80
2018-09-04T07:10:37.242Z,46.70
2018-09-04T07:11:37.265Z,46.90
2018-09-04T07:12:37.289Z,47.10
2018-09-04T07:13:37.313Z,47.10
2018-09-04T07:14:37.336Z,47.60
2018-09-04T07:15:37.366Z,47.90
2018-09-04T07:16:37.385Z,45.20
2018-09-04T07:17:37.410Z,45.90
2018-09-04T07:18:37.434Z,48.40
2018-09-04T07:19:37.457Z,47.30
2018-09-04T07:20:37.486Z,46.60
2018-09-04T07:21:37.506Z,45.10
2018-09-04T07:22:37.532Z,45.00
2018-09-04T07:23:37.552Z,45.90
2018-09-04T07:24:37.584Z,46.50
2018-09-04T07:25:37.603Z,49.20
2018-09-04T07:26:37.626Z,48.20
2018-09-04T07:27:37.654Z,47.80
2018-09-04T07:28:37.674Z,46.90
2018-09-04T07:29:37.700Z,45.90
2018-09-04T07:30:37.725Z,46.90
2018-09-04T07:31:37.748Z,44.80
2018-09-04T07:32:37.769Z,47.20
2018-09-04T07:33:37.796Z,46.10
2018-09-04T07:34:37.823Z,46.80
2018-09-04T07:35:37.845Z,45.60
2018-09-04T07:36:37.868Z,46.40
2018-09-04T07:37:37.891Z,45.90
2018-09-04T07:38:37.919Z,45.20
2018-09-04T07:39:37.945Z,45.40
2018-09-04T07:40:37.965Z,45.00
2018-09-04T07:41:37.990Z,45.30
2018-09-04T07:42:38.017Z,45.90
2018-09-04T07:43:38.039Z,46.50
2018-09-04T07:44:38.063Z,46.80
2018-09-04T07:45:38.089Z,46.50
2018-09-04T07:46:38.111Z,44.30
2018-09-04T07:47:38.136Z,45.90
2018-09-04T07:48:38.162Z,45.70
2018-09-04T07:49:38.185Z,45.50
2018-09-04T07:50:38.209Z,45.70
2018-09-04T07:51:38.234Z,44.30
2018-09-04T07:52:38.262Z,49.00
2018-09-04T07:53:38.352Z,44.40
2018-09-04T07:54:38.308Z,45.60
2018-09-04T07:55:38.334Z,45.00
2018-09-04T07:56:38.355Z,43.40
2018-09-04T07:57:38.380Z,44.50
2018-09-04T07:58:38.408Z,43.60
2018-09-04T07:59:38.431Z,45.30
2018-09-04T08:00:38.455Z,45.10
2018-09-04T08:01:38.481Z,45.40
2018-09-04T08:02:38.506Z,44.50
2018-09-04T08:03:38.535Z,45.00
2018-09-04T08:04:38.554Z,44.70
2018-09-04T08:05:38.582Z,43.10
2018-09-04T08:06:38.604Z,45.00
2018-09-04T08:07:38.631Z,43.80
2018-09-04T08:08:38.652Z,42.80
2018-09-04T08:09:38.678Z,41.40
2018-09-04T08:10:38.947Z,41.90
2018-09-04T08:11:38.728Z,42.60
2018-09-04T08:12:38.750Z,42.00
2018-09-04T08:13:38.943Z,43.60
2018-09-04T08:14:38.803Z,42.10
2018-09-04T08:15:38.828Z,42.20
2018-09-04T08:16:38.851Z,43.50
2018-09-04T08:17:38.879Z,43.80
2018-09-04T08:18:38.904Z,43.20
2018-09-04T08:19:38.929Z,42.50
2018-09-04T08:20:39.118Z,40.80
2018-09-04T08:21:38.976Z,41.90
2018-09-04T08:22:39.002Z,41.40
2018-09-04T08:23:39.031Z,42.70
2018-09-04T08:24:39.052Z,42.20
2018-09-04T08:25:39.080Z,43.40
2018-09-04T08:26:39.106Z,42.90
2018-09-04T08:27:39.127Z,46.10
2018-09-04T08:28:39.152Z,43.60
2018-09-04T08:29:39.182Z,44.40
2018-09-04T08:30:39.204Z,43.40
2018-09-04T08:31:39.229Z,43.30
2018-09-04T08:32:39.315Z,42.70
2018-09-04T08:33:39.281Z,40.70
2018-09-04T08:34:39.308Z,44.00
2018-09-04T08:35:39.331Z,44.40
2018-09-04T08:36:39.356Z,43.60
2018-09-04T08:37:39.380Z,42.60
2018-09-04T08:38:39.405Z,43.40
2018-09-04T08:39:39.434Z,42.30
2018-09-04T08:40:39.456Z,42.00
2018-09-04T08:41:39.481Z,43.00
2018-09-04T08:42:39.514Z,42.50
2018-09-04T08:43:39.535Z,43.10
2018-09-04T08:44:39.558Z,42.80
2018-09-04T08:45:39.586Z,43.90
2018-09-04T08:46:39.612Z,46.70
2018-09-04T08:47:39.635Z,50.70
2018-09-04T08:48:39.663Z,42.70
2018-09-04T08:49:39.688Z,41.20
2018-09-04T08:50:39.794Z,40.40
2018-09-04T08:51:39.739Z,40.80
2018-09-04T08:52:39.763Z,38.90
2018-09-04T08:53:39.897Z,40.40
2018-09-04T08:54:39.816Z,41.90
2018-09-04T08:55:39.844Z,42.00
2018-09-04T08:56:39.869Z,40.10
2018-09-04T08:57:39.893Z,39.30
2018-09-04T08:58:40.016Z,38.30
2018-09-04T08:59:39.949Z,38.80
2018-09-04T09:00:39.971Z,40.00
2018-09-04T09:01:40.000Z,41.10
2018-09-04T09:02:40.027Z,40.60
2018-09-04T09:03:40.062Z,75.80
2018-09-04T09:04:40.075Z,67.10
2018-09-04T09:05:40.184Z,45.50
2018-09-04T09:06:40.128Z,44.80
2018-09-04T09:07:40.155Z,41.20
2018-09-04T09:08:40.182Z,40.20
2018-09-04T09:09:40.370Z,39.00
2018-09-04T09:10:40.287Z,36.80
2018-09-04T09:11:40.260Z,36.10
2018-09-04T09:12:40.291Z,36.20
2018-09-04T09:13:40.313Z,37.00
2018-09-04T09:14:40.340Z,36.90
2018-09-04T09:15:40.369Z,37.10
2018-09-04T09:16:40.443Z,35.90
2018-09-04T09:17:40.426Z,36.70
2018-09-04T09:18:40.447Z,35.30
2018-09-04T09:19:40.476Z,35.30
2018-09-04T09:20:40.500Z,34.50
2018-09-04T09:21:40.530Z,36.00
2018-09-04T09:22:40.562Z,36.70
2018-09-04T09:23:40.581Z,38.20
2018-09-04T09:24:40.605Z,38.10
2018-09-04T09:25:40.634Z,36.50
2018-09-04T09:26:41.019Z,35.00
2018-09-04T09:27:40.687Z,34.50
2018-09-04T09:28:40.712Z,35.30
2018-09-04T09:29:40.739Z,34.40
2018-09-04T09:30:40.767Z,34.90
2018-09-04T09:31:40.793Z,34.00
2018-09-04T09:32:40.820Z,35.60
2018-09-04T09:33:40.850Z,34.50
2018-09-04T09:34:40.874Z,34.70
2018-09-04T09:35:40.901Z,34.50
2018-09-04T09:36:40.980Z,34.40
2018-09-04T09:37:40.957Z,35.00
2018-09-04T09:38:40.983Z,35.80
2018-09-04T09:39:41.011Z,33.60
2018-09-04T09:40:41.036Z,32.30
2018-09-04T09:41:41.110Z,33.40
2018-09-04T09:42:41.090Z,33.40
2018-09-04T09:43:41.120Z,31.90
2018-09-04T09:44:41.146Z,32.00
2018-09-04T09:45:41.172Z,35.50
2018-09-04T09:46:41.198Z,30.20
2018-09-04T09:47:41.226Z,31.70
2018-09-04T09:48:41.251Z,32.20
2018-09-04T09:49:41.281Z,31.40
2018-09-04T09:50:41.311Z,32.90
2018-09-04T09:51:41.336Z,32.60
2018-09-04T09:52:41.411Z,32.60
2018-09-04T09:53:41.752Z,30.80
2018-09-04T09:54:41.454Z,31.80
2018-09-04T09:55:41.461Z,29.70
2018-09-04T09:56:41.482Z,29.90
2018-09-04T09:57:41.496Z,31.50
2018-09-04T09:58:41.527Z,32.70
2018-09-04T09:59:41.642Z,30.10
2018-09-04T10:00:41.579Z,32.30
2018-09-04T10:01:41.608Z,32.70
2018-09-04T10:02:41.641Z,31.60
2018-09-04T10:03:41.661Z,32.70
2018-09-04T10:04:41.688Z,35.40
2018-09-04T10:05:41.906Z,31.70
2018-09-04T10:06:41.743Z,35.30
2018-09-04T10:07:41.883Z,40.40
2018-09-04T10:08:41.834Z,30.70
2018-09-04T10:09:41.845Z,31.60
2018-09-04T10:10:41.885Z,31.10
2018-09-04T10:11:41.876Z,34.40
2018-09-04T10:12:41.903Z,32.40
2018-09-04T10:13:41.947Z,31.30
2018-09-04T10:14:41.960Z,30.80
2018-09-04T10:15:41.986Z,32.80
2018-09-04T10:16:42.013Z,31.70
2018-09-04T10:17:42.039Z,31.30
2018-09-04T10:18:42.097Z,31.00
2018-09-04T10:19:42.102Z,30.20
2018-09-04T10:20:42.121Z,30.20
2018-09-04T10:21:42.147Z,30.60
2018-09-04T10:22:42.177Z,30.20
2018-09-04T10:23:42.203Z,29.10
2018-09-04T10:24:42.228Z,29.80
2018-09-04T10:25:42.257Z,30.00
2018-09-04T10:26:42.289Z,30.50
2018-09-04T10:27:42.312Z,30.30
2018-09-04T10:28:42.341Z,30.60
2018-09-04T10:29:42.367Z,29.40
2018-09-04T10:30:42.394Z,29.30
2018-09-04T10:31:42.422Z,29.70
2018-09-04T10:32:42.445Z,30.60
2018-09-04T10:33:42.478Z,33.60
2018-09-04T10:34:42.499Z,32.70
2018-09-04T10:35:42.588Z,29.40
2018-09-04T10:36:42.556Z,29.80
2018-09-04T10:37:42.584Z,28.90
2018-09-04T10:38:42.608Z,29.40
2018-09-04T10:39:42.636Z,29.70
2018-09-04T10:40:42.696Z,30.10
2018-09-04T10:41:42.692Z,28.50
2018-09-04T10:42:42.761Z,31.30
2018-09-04T10:43:42.743Z,30.20
2018-09-04T10:44:42.770Z,29.50
2018-09-04T10:45:42.800Z,28.30
2018-09-04T10:46:42.828Z,28.50
2018-09-04T10:47:42.854Z,28.30
2018-09-04T10:48:42.878Z,28.50
2018-09-04T10:49:42.907Z,28.60
2018-09-04T10:50:42.932Z,27.80
2018-09-04T10:51:42.961Z,27.70
2018-09-04T10:52:42.988Z,29.10
2018-09-04T10:53:43.012Z,30.00
2018-09-04T10:54:43.041Z,29.20
2018-09-04T10:55:43.144Z,29.40
2018-09-04T10:56:43.093Z,27.70
2018-09-04T10:57:43.211Z,27.90
2018-09-04T10:58:43.150Z,29.00
2018-09-04T10:59:43.174Z,29.60
2018-09-04T11:00:43.211Z,28.70
2018-09-04T11:01:43.227Z,30.30
2018-09-04T11:02:43.255Z,30.50
2018-09-04T11:03:43.285Z,28.50
2018-09-04T11:04:43.311Z,28.90
2018-09-04T11:05:43.338Z,27.40
2018-09-04T11:06:43.362Z,28.80
2018-09-04T11:07:43.391Z,29.50
2018-09-04T11:08:43.418Z,27.80
2018-09-04T11:09:43.532Z,28.80
2018-09-04T11:10:43.472Z,28.10
2018-09-04T11:11:43.500Z,27.70
2018-09-04T11:12:43.526Z,28.20
2018-09-04T11:13:43.553Z,27.30
2018-09-04T11:14:43.576Z,27.40
2018-09-04T11:15:43.604Z,26.00
2018-09-04T11:16:43.633Z,24.90
2018-09-04T11:17:43.660Z,24.50
2018-09-04T11:18:43.688Z,25.50
2018-09-04T11:19:43.714Z,23.30
2018-09-04T11:20:43.738Z,23.60
2018-09-04T11:21:43.765Z,24.90
2018-09-04T11:22:43.795Z,21.30
2018-09-04T11:23:43.877Z,21.20
2018-09-04T11:24:43.845Z,21.60
2018-09-04T11:25:43.899Z,21.30
2018-09-04T11:26:43.902Z,23.40
2018-09-04T11:27:43.927Z,22.70
2018-09-04T11:28:43.957Z,22.10
2018-09-04T11:29:43.981Z,21.50
2018-09-04T11:30:44.117Z,21.80
2018-09-04T11:31:44.035Z,20.30
2018-09-04T11:32:44.068Z,21.20
2018-09-04T11:33:44.091Z,22.00
2018-09-04T11:34:44.118Z,21.60
2018-09-04T11:35:44.146Z,22.50
2018-09-04T11:36:44.178Z,23.90
2018-09-04T11:37:44.197Z,22.00
2018-09-04T11:38:44.224Z,22.70
2018-09-04T11:39:44.377Z,22.20
2018-09-04T11:40:44.358Z,23.60
2018-09-04T11:41:44.306Z,24.40
2018-09-04T11:42:44.336Z,25.90
2018-09-04T11:43:44.371Z,24.50
2018-09-04T11:44:44.394Z,23.20
2018-09-04T11:45:44.416Z,23.70
2018-09-04T11:46:44.471Z,22.30
2018-09-04T11:47:44.474Z,23.00
2018-09-04T11:48:44.500Z,22.90
2018-09-04T11:49:44.524Z,24.10
2018-09-04T11:50:44.553Z,23.60
2018-09-04T11:51:44.581Z,22.70
2018-09-04T11:52:44.604Z,23.40
2018-09-04T11:53:44.633Z,21.80
2018-09-04T11:54:44.670Z,23.80
2018-09-04T11:55:44.689Z,22.70
2018-09-04T11:56:44.712Z,22.80
2018-09-04T11:57:44.742Z,23.70
2018-09-04T11:58:44.768Z,23.20
2018-09-04T11:59:44.822Z,24.60
2018-09-04T12:00:44.827Z,26.60
2018-09-04T12:01:44.852Z,25.00
2018-09-04T12:02:44.877Z,23.90
2018-09-04T12:03:44.906Z,24.50
2018-09-04T12:04:44.933Z,25.10
2018-09-04T12:05:45.019Z,25.20
2018-09-04T12:06:45.054Z,24.50
2018-09-04T12:07:45.016Z,26.90
2018-09-04T12:08:45.046Z,25.60
2018-09-04T12:09:45.069Z,27.20
2018-09-04T12:10:45.097Z,25.70
2018-09-04T12:11:45.124Z,25.70
2018-09-04T12:12:45.167Z,25.70
2018-09-04T12:13:45.180Z,52.70
2018-09-04T12:14:45.208Z,37.10
2018-09-04T12:15:45.234Z,30.90
2018-09-04T12:16:45.263Z,26.70
2018-09-04T12:17:45.291Z,26.40
2018-09-04T12:18:45.318Z,26.50
2018-09-04T12:19:45.343Z,36.30
2018-09-04T12:20:45.397Z,29.70
2018-09-04T12:21:45.398Z,26.90
2018-09-04T12:22:45.432Z,27.00
2018-09-04T12:23:45.457Z,21.40
2018-09-04T12:24:45.493Z,22.90
2018-09-04T12:25:45.511Z,22.90
2018-09-04T12:26:45.537Z,21.20
2018-09-04T12:27:45.570Z,21.10
2018-09-04T12:28:45.595Z,22.00
2018-09-04T12:29:45.623Z,21.60
2018-09-04T12:30:45.651Z,23.40
2018-09-04T12:31:45.680Z,26.20
2018-09-04T12:32:45.702Z,26.90
2018-09-04T12:33:45.737Z,26.90
2018-09-04T12:34:45.760Z,22.50
2018-09-04T12:35:45.790Z,22.50
2018-09-04T12:36:45.813Z,23.30
2018-09-04T12:37:45.841Z,22.60
2018-09-04T12:38:45.870Z,22.00
2018-09-04T12:39:45.902Z,20.90
2018-09-04T12:40:45.922Z,22.20
2018-09-04T12:41:45.953Z,21.20
2018-09-04T12:42:45.977Z,21.20
2018-09-04T12:43:46.006Z,19.90
2018-09-04T12:44:46.037Z,19.40
2018-09-04T12:45:46.062Z,20.20
2018-09-04T12:46:46.088Z,18.40
2018-09-04T12:47:46.117Z,17.00
2018-09-04T12:48:46.144Z,17.60
2018-09-04T12:49:46.169Z,16.80
2018-09-04T12:50:46.200Z,17.60
2018-09-04T12:51:46.224Z,17.30
2018-09-04T12:52:46.254Z,15.80